Time;durP1;ratioP1;P1;durP2;ratioP2;P2;SDS_P1;SDS_P2;PMS_P1;PMS_P2;Temp;Humidity;BMP_temperature;BMP_pressure;BME280_temperature;BME280_humidity;BME280_pressure;Samples;Min_cycle;Max_cycle;Signal;HPM_P1;HPM_P2
2022/08/24 00:02:44;;;;;;;0.35;0.35;;;23.60;53.30;;;;;;6189957;28;20392;-74
2022/08/24 00:05:46;;;;;;;0.45;0.40;;;23.60;53.30;;;;;;6193807;28;20026;-74
2022/08/24 00:08:48;;;;;;;0.43;0.40;;;23.60;53.70;;;;;;6171077;28;20027;-74
2022/08/24 00:11:49;;;;;;;0.30;0.30;;;23.60;53.30;;;;;;6181357;28;20019;-74
2022/08/24 00:14:50;;;;;;;0.60;0.40;;;23.60;53.30;;;;;;6194976;28;20609;-74
2022/08/24 00:17:50;;;;;;;0.40;0.30;;;23.60;53.40;;;;;;6176903;28;20031;-75
2022/08/24 00:20:51;;;;;;;0.40;0.35;;;23.60;53.40;;;;;;6172171;28;20027;-74
2022/08/24 00:23:52;;;;;;;0.65;0.40;;;23.60;53.40;;;;;;6195028;28;20068;-74
2022/08/24 00:26:53;;;;;;;0.40;0.40;;;23.60;53.50;;;;;;6191477;28;20029;-74
2022/08/24 00:29:54;;;;;;;0.20;0.20;;;23.60;53.50;;;;;;6195699;28;20524;-73
2022/08/24 00:32:55;;;;;;;0.30;0.30;;;23.60;53.50;;;;;;6179387;28;20053;-74
2022/08/24 00:35:57;;;;;;;0.60;0.43;;;23.60;53.50;;;;;;6170742;28;20078;-73
2022/08/24 00:38:58;;;;;;;0.30;0.30;;;23.60;53.50;;;;;;6194427;28;20031;-73
2022/08/24 00:41:59;;;;;;;0.80;0.30;;;23.60;53.60;;;;;;6187221;28;20034;-74
2022/08/24 00:44:59;;;;;;;0.57;0.30;;;23.60;53.60;;;;;;6169923;28;20042;-74
2022/08/24 00:48:05;;;;;;;0.60;0.40;;;23.60;53.60;;;;;;6185680;28;20022;-74
2022/08/24 00:51:29;;;;;;;0.70;0.40;;;23.60;53.60;;;;;;6194534;28;20030;-74
2022/08/24 00:54:36;;;;;;;1.00;0.50;;;23.60;53.60;;;;;;6170708;28;20385;-74
2022/08/24 00:57:40;;;;;;;0.38;0.30;;;23.60;53.60;;;;;;6180511;28;20030;-74
2022/08/24 01:00:47;;;;;;;0.28;0.28;;;23.60;53.60;;;;;;6194498;28;20085;-74
2022/08/24 01:03:48;;;;;;;1.20;0.40;;;23.60;53.60;;;;;;6174136;28;20043;-74
2022/08/24 01:06:48;;;;;;;0.28;0.28;;;23.60;53.60;;;;;;6172960;28;20038;-74
2022/08/24 01:09:52;;;;;;;0.35;0.35;;;23.60;53.70;;;;;;6194395;28;20515;-74
2022/08/24 01:12:56;;;;;;;0.50;0.40;;;23.60;53.70;;;;;;6183880;28;20027;-74
2022/08/24 01:16:01;;;;;;;0.30;0.30;;;23.60;53.70;;;;;;6196500;28;20250;-74
2022/08/24 01:19:05;;;;;;;0.60;0.40;;;23.60;54.40;;;;;;6189565;28;20031;-74
2022/08/24 01:22:19;;;;;;;0.43;0.43;;;23.60;53.70;;;;;;6174418;28;20068;-74
2022/08/24 01:25:23;;;;;;;0.45;0.30;;;23.60;53.70;;;;;;6197869;28;20624;-74
2022/08/24 01:28:23;;;;;;;0.35;0.30;;;23.60;53.70;;;;;;6189840;28;20038;-75
2022/08/24 01:31:24;;;;;;;0.30;0.30;;;23.60;53.80;;;;;;6194865;28;20508;-74
2022/08/24 01:34:26;;;;;;;0.45;0.25;;;23.60;53.70;;;;;;6174086;28;20034;-74
2022/08/24 01:37:26;;;;;;;0.30;0.30;;;23.60;53.70;;;;;;6174399;28;20027;-74
2022/08/24 01:40:42;;;;;;;0.43;0.43;;;23.60;53.80;;;;;;6193681;28;20097;-73
2022/08/24 01:43:43;;;;;;;0.20;0.20;;;23.60;53.80;;;;;;6181525;28;20027;-73
2022/08/24 01:46:47;;;;;;;0.68;0.43;;;23.60;53.80;;;;;;6174386;28;20031;-74
2022/08/24 01:49:48;;;;;;;1.02;0.30;;;23.60;53.80;;;;;;6195193;28;20067;-73
2022/08/24 01:52:51;;;;;;;0.50;0.30;;;23.60;53.80;;;;;;6195912;28;20430;-74
2022/08/24 01:55:51;;;;;;;0.25;0.25;;;23.60;53.80;;;;;;6173999;28;20029;-74
2022/08/24 01:58:52;;;;;;;0.35;0.35;;;23.60;53.80;;;;;;6183205;28;20022;-73
2022/08/24 02:01:59;;;;;;;0.60;0.40;;;23.60;53.90;;;;;;6197834;28;20381;-74
2022/08/24 02:05:00;;;;;;;0.95;0.50;;;23.60;54.60;;;;;;6176487;28;20397;-73
2022/08/24 02:08:01;;;;;;;0.28;0.28;;;23.60;53.90;;;;;;6192758;28;20037;-74
2022/08/24 02:11:05;;;;;;;0.30;0.30;;;23.60;53.90;;;;;;6197806;28;20026;-74
2022/08/24 02:14:06;;;;;;;0.63;0.40;;;23.60;54.00;;;;;;6184535;28;20073;-74
2022/08/24 02:17:08;;;;;;;0.63;0.50;;;23.60;53.90;;;;;;6173319;28;20027;-74
2022/08/24 02:20:09;;;;;;;0.38;0.30;;;23.60;53.90;;;;;;6192732;28;20026;-74
2022/08/24 02:23:10;;;;;;;1.25;0.52;;;23.60;54.00;;;;;;6193685;28;20260;-74
2022/08/24 02:26:11;;;;;;;0.50;0.30;;;23.60;53.90;;;;;;6174087;28;20095;-74
2022/08/24 02:29:11;;;;;;;0.60;0.30;;;23.60;54.00;;;;;;6187314;28;20400;-74
2022/08/24 02:32:12;;;;;;;0.30;0.30;;;23.60;54.00;;;;;;6173072;28;20057;-73
2022/08/24 02:35:13;;;;;;;0.40;0.40;;;23.60;54.00;;;;;;6191557;28;20494;-74
2022/08/24 02:38:14;;;;;;;0.45;0.40;;;23.60;54.00;;;;;;6195873;28;20022;-74
2022/08/24 02:41:14;;;;;;;0.55;0.50;;;23.60;54.00;;;;;;6172830;28;20062;-73
2022/08/24 02:44:15;;;;;;;0.30;0.30;;;23.60;54.10;;;;;;6182596;28;20092;-75
2022/08/24 02:47:16;;;;;;;0.40;0.40;;;23.60;54.10;;;;;;6199767;28;20026;-74
2022/08/24 02:50:17;;;;;;;0.30;0.30;;;23.60;54.00;;;;;;6179688;28;20035;-74
2022/08/24 02:53:20;;;;;;;0.35;0.30;;;23.60;54.00;;;;;;6172912;28;20023;-73
2022/08/24 02:56:21;;;;;;;0.60;0.50;;;23.60;54.10;;;;;;6196556;28;20062;-74
2022/08/24 02:59:23;;;;;;;0.40;0.30;;;23.60;54.10;;;;;;6188620;28;20060;-74
2022/08/24 03:02:24;;;;;;;0.30;0.30;;;23.60;54.10;;;;;;6172550;28;20031;-73
2022/08/24 03:05:25;;;;;;;0.15;0.15;;;23.60;54.80;;;;;;6188390;28;20053;-74
2022/08/24 03:08:25;;;;;;;0.43;0.40;;;23.60;54.10;;;;;;6196277;28;20380;-74
2022/08/24 03:11:26;;;;;;;0.30;0.30;;;23.60;54.10;;;;;;6172465;28;20034;-73
2022/08/24 03:14:27;;;;;;;0.45;0.40;;;23.60;54.10;;;;;;6179136;28;20037;-73
2022/08/24 03:17:32;;;;;;;0.43;0.40;;;23.60;54.10;;;;;;6197860;28;20072;-74
2022/08/24 03:20:33;;;;;;;0.35;0.20;;;23.60;54.10;;;;;;6184294;28;20039;-74
2022/08/24 03:23:34;;;;;;;0.60;0.40;;;23.60;54.10;;;;;;6175957;28;20042;-74
2022/08/24 03:26:35;;;;;;;0.60;0.50;;;23.60;54.20;;;;;;6173231;28;20033;-74
2022/08/24 03:29:35;;;;;;;0.22;0.20;;;23.60;54.10;;;;;;6174274;28;20026;-74
2022/08/24 03:32:36;;;;;;;0.35;0.35;;;23.50;54.10;;;;;;6197348;28;20046;-74
2022/08/24 03:35:38;;;;;;;0.43;0.30;;;23.60;54.20;;;;;;6183636;28;20041;-75
2022/08/24 03:38:39;;;;;;;0.38;0.38;;;23.60;54.90;;;;;;6173535;28;20031;-75
2022/08/24 03:41:40;;;;;;;0.55;0.50;;;23.60;54.20;;;;;;6193622;28;20030;-74
2022/08/24 03:44:41;;;;;;;0.52;0.40;;;23.60;54.20;;;;;;6194563;28;20039;-73
2022/08/24 03:47:42;;;;;;;0.50;0.40;;;23.60;54.20;;;;;;6187160;28;20374;-74
2022/08/24 03:50:45;;;;;;;0.30;0.30;;;23.50;54.20;;;;;;6184528;28;20084;-74
2022/08/24 03:53:45;;;;;;;0.30;0.30;;;23.60;54.20;;;;;;6195474;28;20040;-74
2022/08/24 03:56:46;;;;;;;1.02;0.40;;;23.60;54.20;;;;;;6175302;28;20486;-74
2022/08/24 03:59:47;;;;;;;0.38;0.38;;;23.60;54.20;;;;;;6174736;28;20030;-74
2022/08/24 04:02:47;;;;;;;0.43;0.38;;;23.60;54.20;;;;;;6195666;28;20030;-74
2022/08/24 04:05:48;;;;;;;0.32;0.32;;;23.60;54.30;;;;;;6183586;28;20105;-74
2022/08/24 04:08:50;;;;;;;0.40;0.30;;;23.50;54.20;;;;;;6171452;28;20027;-74
2022/08/24 04:11:50;;;;;;;0.30;0.30;;;23.50;54.20;;;;;;6189878;28;20161;-74
2022/08/24 04:14:54;;;;;;;0.40;0.40;;;23.50;54.30;;;;;;6192651;28;20508;-74
2022/08/24 04:17:55;;;;;;;0.45;0.30;;;23.50;54.30;;;;;;6173626;28;20046;-74
2022/08/24 04:20:55;;;;;;;0.30;0.30;;;23.50;54.30;;;;;;6181377;28;20042;-74
2022/08/24 04:23:57;;;;;;;0.85;0.47;;;23.50;54.30;;;;;;6194941;28;20504;-74
2022/08/24 04:26:58;;;;;;;0.40;0.40;;;23.50;54.30;;;;;;6177018;28;20026;-74
2022/08/24 04:29:59;;;;;;;0.50;0.30;;;23.50;54.30;;;;;;6169736;28;20022;-74
2022/08/24 04:32:59;;;;;;;0.28;0.28;;;23.50;54.30;;;;;;6197009;28;20073;-74
2022/08/24 04:36:01;;;;;;;0.28;0.28;;;23.50;54.30;;;;;;6186057;28;20042;-74
2022/08/24 04:39:02;;;;;;;0.82;0.40;;;23.50;54.30;;;;;;6186019;28;20246;-74
2022/08/24 04:42:04;;;;;;;0.40;0.40;;;23.50;54.30;;;;;;6186146;28;20104;-74
2022/08/24 04:45:05;;;;;;;0.65;0.35;;;23.50;54.30;;;;;;6194094;28;20041;-74
2022/08/24 04:48:05;;;;;;;0.40;0.40;;;23.50;54.30;;;;;;6170573;28;20089;-73
2022/08/24 04:51:08;;;;;;;0.30;0.30;;;23.50;54.30;;;;;;6177652;28;20377;-74
2022/08/24 04:54:09;;;;;;;1.00;0.40;;;23.50;55.00;;;;;;6194264;28;20022;-73
2022/08/24 04:57:10;;;;;;;0.55;0.32;;;23.50;54.30;;;;;;6178994;28;20029;-74
2022/08/24 05:00:35;;;;;;;0.40;0.40;;;23.50;54.30;;;;;;6186364;28;20063;-73
2022/08/24 05:03:36;;;;;;;;;;;23.50;54.30;;;;;;6192903;28;20038;-74
2022/08/24 05:06:37;;;;;;;1.27;0.50;;;23.50;54.30;;;;;;6193749;28;19905;-74
2022/08/24 05:09:37;;;;;;;0.40;0.40;;;23.50;54.40;;;;;;6194447;28;20075;-74
2022/08/24 05:12:38;;;;;;;0.40;0.40;;;23.50;54.40;;;;;;6201280;28;20392;-74
2022/08/24 05:15:45;;;;;;;0.40;0.30;;;23.50;54.40;;;;;;6195534;28;20022;-74
2022/08/24 05:18:47;;;;;;;0.52;0.30;;;23.50;54.40;;;;;;6170025;28;20034;-74
2022/08/24 05:21:47;;;;;;;0.50;0.30;;;23.50;54.50;;;;;;6178595;28;20503;-74
2022/08/24 05:24:48;;;;;;;0.40;0.35;;;23.50;54.40;;;;;;6195946;28;20030;-74
2022/08/24 05:27:50;;;;;;;0.43;0.32;;;23.50;54.40;;;;;;6191758;28;20034;-74
2022/08/24 05:30:50;;;;;;;0.50;0.40;;;23.50;54.40;;;;;;6195013;28;20035;-73
2022/08/24 05:33:51;;;;;;;0.35;0.30;;;23.50;55.10;;;;;;6169592;28;20034;-74
2022/08/24 05:36:52;;;;;;;0.30;0.30;;;23.50;54.40;;;;;;6178173;28;20030;-74
2022/08/24 05:39:53;;;;;;;0.30;0.30;;;23.50;54.50;;;;;;6195702;28;20031;-74
2022/08/24 05:42:54;;;;;;;0.28;0.28;;;23.50;54.50;;;;;;6178642;28;20039;-73
2022/08/24 05:45:54;;;;;;;0.40;0.40;;;23.50;54.50;;;;;;6169918;28;20120;-74
2022/08/24 05:48:58;;;;;;;0.32;0.32;;;23.50;54.50;;;;;;6194099;28;20030;-74
2022/08/24 05:51:58;;;;;;;0.35;0.30;;;23.50;54.50;;;;;;6190719;28;20023;-74
2022/08/24 05:54:59;;;;;;;0.38;0.38;;;23.50;54.50;;;;;;6169728;28;20011;-74
2022/08/24 05:58:00;;;;;;;0.35;0.30;;;23.50;54.50;;;;;;6184128;28;20062;-73
2022/08/24 06:01:09;;;;;;;0.60;0.40;;;23.50;54.40;;;;;;6189602;28;20035;-73
2022/08/24 06:04:10;;;;;;;0.75;0.50;;;23.50;54.40;;;;;;6196804;28;20396;-74
2022/08/24 06:07:12;;;;;;;0.50;0.45;;;23.50;54.40;;;;;;6196650;28;20029;-74
2022/08/24 06:10:13;;;;;;;0.55;0.55;;;23.50;54.40;;;;;;6194778;28;20430;-74
2022/08/24 06:13:14;;;;;;;0.40;0.40;;;23.50;54.40;;;;;;6186245;28;20026;-74
2022/08/24 06:16:15;;;;;;;0.80;0.52;;;23.50;54.40;;;;;;6196828;28;20026;-74
2022/08/24 06:19:17;;;;;;;0.60;0.50;;;23.50;54.40;;;;;;6177777;28;20033;-74
2022/08/24 06:22:18;;;;;;;0.40;0.32;;;23.50;54.40;;;;;;6179178;28;20062;-74
2022/08/24 06:28:38;;;;;;;0.75;0.50;;;23.50;54.50;;;;;;6186960;28;20038;-74
2022/08/24 06:31:41;;;;;;;0.68;0.55;;;23.50;54.50;;;;;;6215978;28;20423;-73
2022/08/24 06:34:41;;;;;;;0.65;0.60;;;23.50;54.50;;;;;;6178149;28;20035;-74
2022/08/24 06:37:42;;;;;;;0.70;0.68;;;23.50;54.50;;;;;;6183110;28;20031;-74
2022/08/24 06:40:43;;;;;;;0.57;0.55;;;23.50;54.50;;;;;;6201086;28;20030;-74
2022/08/24 06:43:43;;;;;;;0.70;0.45;;;23.50;54.50;;;;;;6186810;28;20039;-74
2022/08/24 06:46:44;;;;;;;0.50;0.50;;;23.50;54.50;;;;;;6176629;28;20078;-74
2022/08/24 06:49:45;;;;;;;0.65;0.60;;;23.50;54.60;;;;;;6197754;28;20034;-74
2022/08/24 06:52:45;;;;;;;0.90;0.55;;;23.50;54.60;;;;;;6195783;28;20026;-74
2022/08/24 06:55:57;;;;;;;1.17;0.65;;;23.50;54.60;;;;;;6179165;28;20037;-74
2022/08/24 06:58:59;;;;;;;0.80;0.60;;;23.50;54.60;;;;;;6189830;28;20030;-74
2022/08/24 07:02:00;;;;;;;0.55;0.40;;;23.50;54.60;;;;;;6200284;28;20025;-74
2022/08/24 07:05:01;;;;;;;0.77;0.60;;;23.50;54.60;;;;;;6178937;28;20122;-74
2022/08/24 07:08:03;;;;;;;0.50;0.50;;;23.50;54.70;;;;;;6180683;28;20037;-74
2022/08/24 07:11:04;;;;;;;0.82;0.60;;;23.50;54.60;;;;;;6200043;28;20014;-74
2022/08/24 07:14:05;;;;;;;0.50;0.43;;;23.50;54.70;;;;;;6187623;28;20426;-74
2022/08/24 07:17:06;;;;;;;0.43;0.40;;;23.50;54.70;;;;;;6176064;28;20034;-74
2022/08/24 07:20:07;;;;;;;0.40;0.40;;;23.50;54.70;;;;;;6211075;28;20114;-74
2022/08/24 07:23:10;;;;;;;0.85;0.60;;;23.50;54.70;;;;;;6196387;28;20057;-74
2022/08/24 07:26:14;;;;;;;0.98;0.60;;;23.50;54.70;;;;;;6175192;28;20058;-74
2022/08/24 07:29:15;;;;;;;1.35;0.60;;;23.50;54.70;;;;;;6187352;28;20050;-74
2022/08/24 07:32:15;;;;;;;0.73;0.47;;;23.50;54.70;;;;;;6199323;28;20518;-74
2022/08/24 07:35:16;;;;;;;0.90;0.50;;;23.50;54.70;;;;;;6179129;28;20018;-74
2022/08/24 07:38:17;;;;;;;0.47;0.47;;;23.50;54.70;;;;;;6178103;28;20483;-74
2022/08/24 07:41:19;;;;;;;1.10;0.52;;;23.50;54.70;;;;;;6198337;28;20029;-74
2022/08/24 07:44:20;;;;;;;0.60;0.57;;;23.50;54.70;;;;;;6188535;28;20039;-74
2022/08/24 07:47:21;;;;;;;1.08;0.65;;;23.50;55.40;;;;;;6175385;28;20029;-74
2022/08/24 07:50:22;;;;;;;0.88;0.57;;;23.50;54.80;;;;;;6193002;28;20026;-74
2022/08/24 07:53:24;;;;;;;1.08;0.90;;;23.50;54.80;;;;;;6198243;28;20026;-74
2022/08/24 07:56:27;;;;;;;0.55;0.50;;;23.50;54.80;;;;;;6175378;28;20026;-74
2022/08/24 07:59:28;;;;;;;0.90;0.60;;;23.50;54.80;;;;;;6184602;28;20399;-74
2022/08/24 08:02:28;;;;;;;1.05;0.70;;;23.50;54.80;;;;;;6199392;28;20068;-74
2022/08/24 08:05:29;;;;;;;1.02;0.70;;;23.50;54.80;;;;;;6182474;28;20097;-74
2022/08/24 08:08:33;;;;;;;0.90;0.70;;;23.50;54.80;;;;;;6174437;28;20117;-74
2022/08/24 08:11:33;;;;;;;0.70;0.60;;;23.50;54.80;;;;;;6201449;28;20057;-74
2022/08/24 08:14:34;;;;;;;0.55;0.55;;;23.50;54.80;;;;;;6189866;28;20435;-74
2022/08/24 08:17:36;;;;;;;0.80;0.55;;;23.50;54.80;;;;;;6171291;28;20042;-74
2022/08/24 08:20:39;;;;;;;0.65;0.60;;;23.50;54.80;;;;;;6190090;28;20037;-74
2022/08/24 08:27:16;;;;;;;0.90;0.60;;;23.50;54.80;;;;;;6178743;28;20042;-74
2022/08/24 08:30:17;;;;;;;0.55;0.55;;;23.50;54.80;;;;;;6200708;28;20488;-74
2022/08/24 08:33:17;;;;;;;1.38;0.80;;;23.50;54.80;;;;;;6197840;28;20061;-74
2022/08/24 08:36:20;;;;;;;0.40;0.40;;;23.50;54.80;;;;;;6178765;28;20102;-74
2022/08/24 08:39:21;;;;;;;0.60;0.52;;;23.50;54.80;;;;;;6177095;28;20046;-74
2022/08/24 08:42:41;;;;;;;0.60;0.60;;;23.50;54.80;;;;;;6198095;28;20574;-74
2022/08/24 08:45:57;;;;;;;1.63;0.60;;;23.50;54.80;;;;;;6184676;28;20382;-74
2022/08/24 08:49:22;;;;;;;0.60;0.60;;;23.50;54.80;;;;;;6173739;28;20025;-74
2022/08/24 08:52:50;;;;;;;0.63;0.50;;;23.50;54.80;;;;;;6173962;28;20019;-74
2022/08/24 08:56:10;;;;;;;1.10;0.70;;;23.50;54.90;;;;;;6186838;28;20182;-73
2022/08/24 08:59:35;;;;;;;0.95;0.68;;;23.50;54.90;;;;;;6197760;28;20384;-74
2022/08/24 09:03:02;;;;;;;0.95;0.80;;;23.50;54.90;;;;;;6188248;28;20508;-74
2022/08/24 09:06:21;;;;;;;0.73;0.70;;;23.50;54.90;;;;;;6186702;28;20137;-74
2022/08/24 09:09:48;;;;;;;0.77;0.60;;;23.50;54.90;;;;;;6197478;28;20556;-74
2022/08/24 09:13:04;;;;;;;0.60;0.50;;;23.50;55.00;;;;;;6173477;28;20042;-74
2022/08/24 09:16:20;;;;;;;1.02;0.63;;;23.50;54.90;;;;;;6188079;28;20080;-74
2022/08/24 09:19:45;;;;;;;0.73;0.60;;;23.50;54.90;;;;;;6197248;28;20069;-74
2022/08/24 09:22:47;;;;;;;0.70;0.63;;;23.50;54.90;;;;;;6172921;28;20027;-74
2022/08/24 09:25:57;;;;;;;2.03;0.80;;;23.50;55.10;;;;;;6180667;28;20026;-74
2022/08/24 09:29:22;;;;;;;1.05;0.80;;;23.50;55.00;;;;;;6172986;28;20081;-73
2022/08/24 09:32:47;;;;;;;0.77;0.60;;;23.50;55.00;;;;;;6192349;28;20054;-75
2022/08/24 09:36:02;;;;;;;0.80;0.70;;;23.50;55.00;;;;;;6189710;28;20102;-74
2022/08/24 09:39:15;;;;;;;1.55;0.88;;;23.50;55.00;;;;;;6175528;28;20081;-74
2022/08/24 09:42:33;;;;;;;2.70;0.70;;;23.50;54.90;;;;;;6191613;28;20023;-74
2022/08/24 09:46:05;;;;;;;0.80;0.60;;;23.50;54.90;;;;;;6192566;28;20082;-75
2022/08/24 09:49:17;;;;;;;0.60;0.60;;;23.50;55.00;;;;;;6172847;28;20019;-74
2022/08/24 09:52:49;;;;;;;0.82;0.70;;;23.50;54.90;;;;;;6190635;28;20488;-74
2022/08/24 09:55:49;;;;;;;0.73;0.70;;;23.50;55.00;;;;;;6192022;28;20576;-74
2022/08/24 09:59:05;;;;;;;1.20;0.80;;;23.50;55.00;;;;;;6172821;28;20027;-74
2022/08/24 10:02:26;;;;;;;1.05;0.80;;;23.50;55.00;;;;;;6187185;28;20066;-74
2022/08/24 10:05:46;;;;;;;1.05;0.73;;;23.50;55.70;;;;;;6199715;28;20058;-73
2022/08/24 10:09:24;;;;;;;1.00;0.68;;;23.50;55.00;;;;;;6177348;28;20034;-74
2022/08/24 10:12:47;;;;;;;0.85;0.70;;;23.50;54.90;;;;;;6192552;28;20037;-74
2022/08/24 10:16:10;;;;;;;0.82;0.63;;;23.50;55.00;;;;;;6199391;28;20033;-75
2022/08/24 10:19:38;;;;;;;0.57;0.50;;;23.50;55.00;;;;;;6177251;28;20031;-74
2022/08/24 10:22:59;;;;;;;0.60;0.50;;;23.50;55.00;;;;;;6192967;28;20392;-73
2022/08/24 10:26:12;;;;;;;1.27;0.90;;;23.50;55.00;;;;;;6199251;28;20033;-74
2022/08/24 10:29:33;;;;;;;0.77;0.70;;;23.50;55.00;;;;;;6200687;28;20032;-74
2022/08/24 10:32:46;;;;;;;0.82;0.70;;;23.50;55.00;;;;;;6186759;28;20456;-74
2022/08/24 10:36:02;;;;;;;0.77;0.73;;;23.50;55.00;;;;;;6177130;28;20097;-74
2022/08/24 10:39:41;;;;;;;1.38;0.90;;;23.50;55.10;;;;;;6176762;28;20023;-74
2022/08/24 10:46:28;;;;;;;0.73;0.70;;;23.50;55.10;;;;;;6178168;28;20070;-74
2022/08/24 10:49:30;;;;;;;0.80;0.75;;;23.50;55.00;;;;;;6215924;28;20023;-74
2022/08/24 10:52:37;;;;;;;1.05;0.70;;;23.50;55.10;;;;;;6200719;28;20026;-74
2022/08/24 10:55:38;;;;;;;1.33;0.95;;;23.50;55.00;;;;;;6200327;28;20477;-73
2022/08/24 10:59:05;;;;;;;0.93;0.77;;;23.50;55.00;;;;;;6181067;28;20058;-74
2022/08/24 11:02:12;;;;;;;1.17;0.80;;;23.50;55.00;;;;;;6182185;28;20081;-74
2022/08/24 11:05:28;;;;;;;0.77;0.70;;;23.50;55.10;;;;;;6202714;28;20418;-74
2022/08/24 11:08:34;;;;;;;0.88;0.70;;;23.50;55.10;;;;;;6183434;28;20023;-74
2022/08/24 11:11:41;;;;;;;1.27;0.88;;;23.50;55.10;;;;;;6176721;28;20030;-74
2022/08/24 11:14:47;;;;;;;1.15;0.88;;;23.50;55.10;;;;;;6215008;28;20022;-74
2022/08/24 11:17:59;;;;;;;0.80;0.80;;;23.50;55.10;;;;;;6190521;28;20055;-74
2022/08/24 11:21:01;;;;;;;0.80;0.70;;;23.50;55.10;;;;;;6176209;28;20023;-74
2022/08/24 11:24:24;;;;;;;1.17;0.90;;;23.50;55.10;;;;;;6196747;28;20048;-74
2022/08/24 11:27:38;;;;;;;0.93;0.85;;;23.50;55.10;;;;;;6210436;28;20026;-74
2022/08/24 11:30:40;;;;;;;1.48;0.85;;;23.50;55.10;;;;;;6199707;28;20435;-74
2022/08/24 11:33:47;;;;;;;1.08;0.95;;;23.50;55.10;;;;;;6187363;28;20458;-74
2022/08/24 11:36:47;;;;;;;1.55;1.00;;;23.50;55.10;;;;;;6175412;28;20026;-74
2022/08/24 11:39:48;;;;;;;1.20;1.00;;;23.50;55.10;;;;;;6198071;28;20026;-74
2022/08/24 11:43:05;;;;;;;0.68;0.63;;;23.50;55.20;;;;;;6193208;28;20030;-74
2022/08/24 11:46:27;;;;;;;0.80;0.70;;;23.50;55.10;;;;;;6174942;28;20023;-74
2022/08/24 11:49:58;;;;;;;1.00;0.90;;;23.50;55.10;;;;;;6174689;28;20026;-73
2022/08/24 11:53:10;;;;;;;1.15;0.82;;;23.50;55.20;;;;;;6181044;28;20026;-73
2022/08/24 11:56:24;;;;;;;1.02;0.82;;;23.50;55.20;;;;;;6198737;28;20030;-74
2022/08/24 11:59:47;;;;;;;0.90;0.80;;;23.50;55.20;;;;;;6181801;28;20027;-73
2022/08/24 12:03:03;;;;;;;1.05;0.80;;;23.50;55.20;;;;;;6178499;28;20018;-73
2022/08/24 12:06:36;;;;;;;1.10;0.93;;;23.50;55.20;;;;;;6198310;28;20077;-74
2022/08/24 12:09:49;;;;;;;0.80;0.80;;;23.50;55.20;;;;;;6189668;28;20114;-74
2022/08/24 12:13:07;;;;;;;0.75;0.75;;;23.50;55.30;;;;;;6196151;28;20496;-74
2022/08/24 12:16:14;;;;;;;1.05;0.80;;;23.50;55.20;;;;;;6174549;28;20110;-73
2022/08/24 12:19:19;;;;;;;0.90;0.80;;;23.50;55.20;;;;;;6187045;28;20102;-74
2022/08/24 12:22:22;;;;;;;1.75;1.10;;;23.50;55.20;;;;;;6200878;28;20561;-74
2022/08/24 12:28:49;;;;;;;1.20;0.80;;;23.50;55.20;;;;;;6181673;28;20026;-74
2022/08/24 12:31:55;;;;;;;1.13;0.85;;;23.50;55.20;;;;;;6198321;28;20057;-74
2022/08/24 12:35:02;;;;;;;1.05;0.80;;;23.50;55.30;;;;;;6181162;28;20385;-73
2022/08/24 12:38:21;;;;;;;0.95;0.80;;;23.50;55.30;;;;;;6175035;28;20055;-74
2022/08/24 12:41:54;;;;;;;0.60;0.60;;;23.50;55.30;;;;;;6198042;28;20252;-74
2022/08/24 12:45:00;;;;;;;0.70;0.70;;;23.50;55.30;;;;;;6182404;28;20462;-74
2022/08/24 12:48:10;;;;;;;0.70;0.68;;;23.50;55.30;;;;;;6173601;28;20108;-74
2022/08/24 12:51:46;;;;;;;0.93;0.82;;;23.50;55.30;;;;;;6173841;28;20081;-74
2022/08/24 12:55:13;;;;;;;0.95;0.80;;;23.50;55.30;;;;;;6186108;28;20362;-74
2022/08/24 12:58:49;;;;;;;0.60;0.60;;;23.50;55.30;;;;;;6198045;28;20037;-73
2022/08/24 13:02:03;;;;;;;0.70;0.70;;;23.50;55.30;;;;;;6173556;28;20027;-74
2022/08/24 13:05:17;;;;;;;0.70;0.70;;;23.50;55.30;;;;;;6186536;28;20558;-74
2022/08/24 13:08:40;;;;;;;2.03;1.02;;;23.50;55.30;;;;;;6197513;28;20057;-74
2022/08/24 13:11:41;;;;;;;1.27;0.85;;;23.50;55.30;;;;;;6175705;28;20462;-74
2022/08/24 13:14:48;;;;;;;0.88;0.75;;;23.50;55.30;;;;;;6184955;28;20030;-75
2022/08/24 13:18:08;;;;;;;0.60;0.55;;;23.50;55.30;;;;;;6197538;28;20404;-74
2022/08/24 13:21:16;;;;;;;0.68;0.65;;;23.50;55.30;;;;;;6177308;28;20023;-74
2022/08/24 13:24:31;;;;;;;0.70;0.70;;;23.50;55.30;;;;;;6183419;28;20039;-74
2022/08/24 13:27:35;;;;;;;1.00;0.80;;;23.50;55.30;;;;;;6189078;28;20818;-74
2022/08/24 13:31:02;;;;;;;1.02;0.90;;;23.50;55.30;;;;;;6187443;28;20093;-74
2022/08/24 13:34:07;;;;;;;0.80;0.63;;;23.50;55.30;;;;;;6193651;28;20053;-73
2022/08/24 13:37:09;;;;;;;1.20;0.77;;;23.50;55.30;;;;;;6173071;28;20034;-74
2022/08/24 13:40:21;;;;;;;0.80;0.60;;;23.50;55.30;;;;;;6185138;28;20022;-74
2022/08/24 13:43:47;;;;;;;0.80;0.77;;;23.50;55.30;;;;;;6202046;28;20035;-74
2022/08/24 13:46:55;;;;;;;1.02;0.77;;;23.50;55.40;;;;;;6179439;28;20382;-74
2022/08/24 13:50:02;;;;;;;0.95;0.80;;;23.50;55.30;;;;;;6186894;28;20081;-74
2022/08/24 13:53:25;;;;;;;0.85;0.80;;;23.50;55.30;;;;;;6201971;28;20037;-74
2022/08/24 13:56:47;;;;;;;1.08;0.80;;;23.50;55.30;;;;;;6186418;28;20027;-74
2022/08/24 14:00:06;;;;;;;1.00;0.90;;;23.50;55.30;;;;;;6182084;28;20077;-74
2022/08/24 14:03:19;;;;;;;1.02;0.70;;;23.50;55.30;;;;;;6201379;28;20169;-73
2022/08/24 14:06:38;;;;;;;0.70;0.60;;;23.50;55.40;;;;;;6184874;28;20027;-73
2022/08/24 14:09:57;;;;;;;0.90;0.80;;;23.50;55.40;;;;;;6177972;28;20391;-74
2022/08/24 14:13:25;;;;;;;0.88;0.75;;;23.50;55.30;;;;;;6201913;28;20026;-74
2022/08/24 14:20:47;;;;;;;1.02;0.90;;;23.50;55.40;;;;;;6181298;28;20473;-74
2022/08/24 14:24:32;;;;;;;1.33;0.88;;;23.50;55.40;;;;;;6201367;28;20037;-73
2022/08/24 14:27:50;;;;;;;1.20;0.70;;;23.50;55.40;;;;;;6170552;28;20497;-73
2022/08/24 14:31:28;;;;;;;0.68;0.60;;;23.50;55.40;;;;;;6192502;28;20027;-74
2022/08/24 14:34:40;;;;;;;0.60;0.60;;;23.50;55.40;;;;;;6166009;28;20043;-74
2022/08/24 14:37:56;;;;;;;0.63;0.60;;;23.50;55.40;;;;;;6198750;28;20030;-74
2022/08/24 14:41:12;;;;;;;0.98;0.80;;;23.40;55.30;;;;;;6195420;28;20031;-74
2022/08/24 14:44:39;;;;;;;0.80;0.70;;;23.50;55.40;;;;;;6176572;28;20122;-74
2022/08/24 14:47:51;;;;;;;0.75;0.70;;;23.50;55.40;;;;;;6192592;28;20039;-74
2022/08/24 14:51:10;;;;;;;0.90;0.70;;;23.50;56.10;;;;;;6194601;28;20722;-74
2022/08/24 14:54:15;;;;;;;0.80;0.73;;;23.50;55.40;;;;;;6177083;28;20027;-74
2022/08/24 14:57:30;;;;;;;0.65;0.60;;;23.50;55.50;;;;;;6192653;28;20069;-74
2022/08/24 15:01:08;;;;;;;4.47;0.80;;;23.50;55.40;;;;;;6199598;28;20068;-74
2022/08/24 15:04:34;;;;;;;0.80;0.80;;;23.40;55.40;;;;;;6161964;28;20097;-74
2022/08/24 15:07:36;;;;;;;1.00;0.77;;;23.50;55.40;;;;;;6193774;28;20038;-74
2022/08/24 15:10:44;;;;;;;1.00;0.80;;;23.50;55.40;;;;;;6199577;28;20385;-74
2022/08/24 15:13:48;;;;;;;1.00;0.90;;;23.50;55.50;;;;;;6176056;28;20142;-74
2022/08/24 15:17:00;;;;;;;0.95;0.80;;;23.50;55.50;;;;;;6185830;28;20523;-74
2022/08/24 15:20:47;;;;;;;0.80;0.80;;;23.50;55.50;;;;;;6200559;28;20687;-73
2022/08/24 15:24:09;;;;;;;1.15;0.85;;;23.40;55.40;;;;;;6176978;28;20030;-74
2022/08/24 15:27:44;;;;;;;0.98;0.70;;;23.50;55.50;;;;;;6179531;28;20030;-74
2022/08/24 15:30:54;;;;;;;1.27;1.00;;;23.40;55.40;;;;;;6174641;28;20018;-73
2022/08/24 15:34:01;;;;;;;0.70;0.70;;;23.40;55.40;;;;;;6173545;28;20026;-74
2022/08/24 15:37:02;;;;;;;1.30;0.85;;;23.40;55.40;;;;;;6185766;28;20027;-74
2022/08/24 15:40:21;;;;;;;0.95;0.80;;;23.50;55.50;;;;;;6213920;28;20041;-73
2022/08/24 15:43:22;;;;;;;1.60;0.73;;;23.40;55.40;;;;;;6178741;28;20030;-74
2022/08/24 15:46:33;;;;;;;0.90;0.70;;;23.40;55.40;;;;;;6177410;28;20023;-74
2022/08/24 15:49:44;;;;;;;0.73;0.73;;;23.40;55.40;;;;;;6198518;28;20512;-74
2022/08/24 15:52:59;;;;;;;0.73;0.60;;;23.40;55.40;;;;;;6185741;28;20019;-74
2022/08/24 15:56:34;;;;;;;0.65;0.60;;;23.50;55.50;;;;;;6174611;28;20031;-74
2022/08/24 15:59:38;;;;;;;0.60;0.60;;;23.40;55.40;;;;;;6176779;28;20035;-74
2022/08/24 16:02:40;;;;;;;1.20;0.80;;;23.40;55.40;;;;;;6186467;28;20041;-74
2022/08/24 16:05:40;;;;;;;1.00;0.82;;;23.40;55.40;;;;;;6199231;28;20045;-74
2022/08/24 16:09:09;;;;;;;0.65;0.65;;;23.40;55.40;;;;;;6180420;28;20062;-74
2022/08/24 16:12:20;;;;;;;0.70;0.60;;;23.40;55.80;;;;;;6180437;28;20085;-74
2022/08/24 16:15:21;;;;;;;0.70;0.70;;;23.40;55.40;;;;;;6199366;28;20034;-74
2022/08/24 16:18:25;;;;;;;0.68;0.57;;;23.40;55.40;;;;;;6207654;28;20035;-74
2022/08/24 16:21:29;;;;;;;0.80;0.80;;;23.40;55.40;;;;;;6197382;28;20018;-74
2022/08/24 16:24:31;;;;;;;0.70;0.70;;;23.50;55.60;;;;;;6173493;28;20081;-74
2022/08/24 16:28:01;;;;;;;0.65;0.65;;;23.40;55.40;;;;;;6176480;28;20351;-74
2022/08/24 16:31:04;;;;;;;1.10;0.70;;;23.40;55.50;;;;;;6172427;28;20437;-74
2022/08/24 16:34:27;;;;;;;0.70;0.70;;;23.50;55.50;;;;;;6189345;28;20061;-74
2022/08/24 16:37:28;;;;;;;2.10;0.80;;;23.40;55.50;;;;;;6191669;28;20018;-74
2022/08/24 16:40:31;;;;;;;0.60;0.60;;;23.40;55.50;;;;;;6172145;28;20026;-73